Terminal Aerodrome Forecast
Issued by NWS

Home | Current Version | Previous Version | Text Only | Print | Product List | Glossary On
Versions: 1 2 3 4 5 6 7 8 9 10 11 12 13 14 15 16 17 18 19 20 21 22 23 24 25 26 27 28 29 30 31 32 33
000
FTUS41 KRNK 241131
TAFBCB
TAF
KBCB 241131Z 2412/2512 00000KT 4SM BR SCT002 SCT100
     FM241600 27007KT P6SM BKN050
     FM250100 00000KT P6SM SCT060
     FM250900 00000KT 5SM BR SCT002
      TEMPO 2510/2512 1SM BR VV002=

USA.gov is the U.S. government's official web portal to all federal, state and local government web resources and services.